Bavaria

Go HERE for most recent data if this page is not up to date.

Jump to table bottom
Date Time Temp F RH % AVG Wind Max Wind Wind Dir 24 Snow Depth
02/22 08:00 17.4 88 3 9 NW - 294 0.2 40.7
02/22 07:00 17.2 87 2 7 W - 281 0.2 40.8
02/22 06:00 17.2 87 4 10 S - 173 0.2 40.8
02/22 05:00 16.6 87 6 11 W - 284 0.2 40.7
02/22 04:00 17.3 88 4 10 W - 259 0.2 40.7
02/22 03:00 17.9 88 4 11 NW - 298 0.2 40.7
02/22 02:00 17.8 89 4 10 W - 286 0.2 41.0
02/22 01:00 18.3 85 5 9 NW - 306 0.2 41.0
02/22 00:00 18.3 86 6 8 W - 266 0.2 41.2
02/21 23:00 19.6 81 4 8 NW - 301 0.2 41.3
02/21 22:00 19.1 81 5 10 SW - 215 0.2 41.3
02/21 21:00 19.4 77 6 10 W - 271 0.2 41.3
02/21 20:00 20.0 74 6 10 NW - 311 0.2 41.3
02/21 19:00 20.3 72 5 10 NW - 308 0.1 41.2
02/21 18:00 20.8 69 3 9 NW - 337 0.0 41.0
02/21 17:00 25.1 58 2 7 SE - 138 -0.0 40.9
02/21 16:00 28.4 51 1 4 SW - 205 -0.2 40.7
02/21 15:00 31.5 44 2 5 NW - 309 -0.3 40.3
02/21 14:00 33.6 40 3 10 SW - 205 -0.4 40.3
02/21 13:00 29.8 46 2 7 SW - 237 -0.4 40.4
02/21 12:00 30.1 47 4 10 W - 283 -0.3 40.3
02/21 11:00 26.6 53 3 7 W - 285 -0.2 40.9
02/21 10:00 27.3 52 2 6 N - 355 -0.0 41.8
02/21 09:00 24.1 56 3 9 NW - 331 0.2 42.0
02/21 08:00 18.7 68 2 5 W - 274 0.2 41.8
02/21 07:00 16.5 77 1 5 NW - 318 0.2 41.6
02/21 06:00 16.6 82 0 3 W - 251 0.3 41.6
02/21 05:00 17.5 82 1 5 S - 162 0.2 41.8
02/21 04:00 16.7 85 2 4 NW - 323 0.1 41.9
02/21 03:00 16.8 83 1 4 NW - 299 0.1 41.8
02/21 02:00 19.6 67 2 7 W - 272 0.1 42.0
02/21 01:00 20.3 68 2 8 NW - 296 0.3 42.0
02/21 00:00 19.3 77 1 5 W - 256 0.3 41.9
.